sensor_id;sensor_type;location;lat;lon;timestamp;P1;durP1;ratioP1;P2;durP2;ratioP2
10050;SDS011;5065;46.942;7.432;2023-01-19T00:00:03;6.53;;;4.80;;
10050;SDS011;5065;46.942;7.432;2023-01-19T00:02:34;6.63;;;4.90;;
10050;SDS011;5065;46.942;7.432;2023-01-19T00:05:01;7.93;;;4.90;;
10050;SDS011;5065;46.942;7.432;2023-01-19T00:07:29;8.73;;;5.60;;
10050;SDS011;5065;46.942;7.432;2023-01-19T00:09:56;8.10;;;5.70;;
10050;SDS011;5065;46.942;7.432;2023-01-19T00:12:28;10.33;;;6.10;;
10050;SDS011;5065;46.942;7.432;2023-01-19T00:14:55;10.77;;;6.30;;
10050;SDS011;5065;46.942;7.432;2023-01-19T00:17:22;8.50;;;6.03;;
10050;SDS011;5065;46.942;7.432;2023-01-19T00:19:49;9.10;;;5.87;;
10050;SDS011;5065;46.942;7.432;2023-01-19T00:22:16;10.60;;;7.10;;
10050;SDS011;5065;46.942;7.432;2023-01-19T00:24:43;8.00;;;6.00;;
10050;SDS011;5065;46.942;7.432;2023-01-19T00:27:10;8.40;;;5.80;;
10050;SDS011;5065;46.942;7.432;2023-01-19T00:29:39;8.10;;;5.97;;
10050;SDS011;5065;46.942;7.432;2023-01-19T00:32:06;8.77;;;6.57;;
10050;SDS011;5065;46.942;7.432;2023-01-19T00:34:33;7.93;;;6.30;;
10050;SDS011;5065;46.942;7.432;2023-01-19T00:37:03;8.87;;;5.77;;
10050;SDS011;5065;46.942;7.432;2023-01-19T00:39:31;8.33;;;6.60;;
10050;SDS011;5065;46.942;7.432;2023-01-19T00:41:58;7.53;;;5.57;;
10050;SDS011;5065;46.942;7.432;2023-01-19T00:44:44;8.53;;;5.50;;
10050;SDS011;5065;46.942;7.432;2023-01-19T00:47:12;10.07;;;6.20;;
10050;SDS011;5065;46.942;7.432;2023-01-19T00:49:39;10.20;;;6.37;;
10050;SDS011;5065;46.942;7.432;2023-01-19T00:52:06;6.63;;;5.40;;
10050;SDS011;5065;46.942;7.432;2023-01-19T00:54:33;12.90;;;6.73;;
10050;SDS011;5065;46.942;7.432;2023-01-19T00:57:01;7.90;;;5.50;;
10050;SDS011;5065;46.942;7.432;2023-01-19T00:59:28;10.90;;;6.20;;
10050;SDS011;5065;46.942;7.432;2023-01-19T01:01:57;7.03;;;5.37;;
10050;SDS011;5065;46.942;7.432;2023-01-19T01:04:24;6.67;;;5.30;;
10050;SDS011;5065;46.942;7.432;2023-01-19T01:06:51;8.03;;;5.53;;
10050;SDS011;5065;46.942;7.432;2023-01-19T01:09:18;10.07;;;5.93;;
10050;SDS011;5065;46.942;7.432;2023-01-19T01:11:47;8.07;;;5.57;;
10050;SDS011;5065;46.942;7.432;2023-01-19T01:14:14;7.83;;;5.80;;
10050;SDS011;5065;46.942;7.432;2023-01-19T01:16:42;7.23;;;5.27;;
10050;SDS011;5065;46.942;7.432;2023-01-19T01:19:10;9.97;;;6.63;;
10050;SDS011;5065;46.942;7.432;2023-01-19T01:21:37;6.87;;;5.07;;
10050;SDS011;5065;46.942;7.432;2023-01-19T01:24:05;7.77;;;5.77;;
10050;SDS011;5065;46.942;7.432;2023-01-19T01:26:33;7.87;;;5.50;;
10050;SDS011;5065;46.942;7.432;2023-01-19T01:29:00;9.13;;;5.47;;
10050;SDS011;5065;46.942;7.432;2023-01-19T01:31:27;11.60;;;5.63;;
10050;SDS011;5065;46.942;7.432;2023-01-19T01:33:55;7.87;;;5.70;;
10050;SDS011;5065;46.942;7.432;2023-01-19T01:36:23;5.90;;;5.27;;
10050;SDS011;5065;46.942;7.432;2023-01-19T01:38:53;7.60;;;5.23;;
10050;SDS011;5065;46.942;7.432;2023-01-19T01:41:20;8.27;;;5.30;;
10050;SDS011;5065;46.942;7.432;2023-01-19T01:43:48;8.87;;;5.37;;
10050;SDS011;5065;46.942;7.432;2023-01-19T01:46:17;7.73;;;5.30;;
10050;SDS011;5065;46.942;7.432;2023-01-19T01:48:46;12.43;;;4.80;;
10050;SDS011;5065;46.942;7.432;2023-01-19T01:51:19;9.63;;;5.13;;
10050;SDS011;5065;46.942;7.432;2023-01-19T01:54:02;9.13;;;4.63;;
10050;SDS011;5065;46.942;7.432;2023-01-19T01:56:37;6.40;;;4.47;;
10050;SDS011;5065;46.942;7.432;2023-01-19T01:59:07;7.33;;;5.17;;
10050;SDS011;5065;46.942;7.432;2023-01-19T02:01:38;7.90;;;5.10;;
10050;SDS011;5065;46.942;7.432;2023-01-19T02:04:22;7.77;;;5.00;;
10050;SDS011;5065;46.942;7.432;2023-01-19T02:06:51;6.43;;;5.20;;
10050;SDS011;5065;46.942;7.432;2023-01-19T02:09:36;9.40;;;4.93;;
10050;SDS011;5065;46.942;7.432;2023-01-19T02:12:21;10.47;;;6.20;;
10050;SDS011;5065;46.942;7.432;2023-01-19T02:15:13;6.60;;;4.23;;
10050;SDS011;5065;46.942;7.432;2023-01-19T02:17:41;7.43;;;5.30;;
10050;SDS011;5065;46.942;7.432;2023-01-19T02:20:09;5.43;;;4.80;;
10050;SDS011;5065;46.942;7.432;2023-01-19T02:22:40;8.67;;;5.77;;
10050;SDS011;5065;46.942;7.432;2023-01-19T02:25:14;8.27;;;6.03;;
10050;SDS011;5065;46.942;7.432;2023-01-19T02:27:43;7.33;;;4.90;;
10050;SDS011;5065;46.942;7.432;2023-01-19T02:30:11;8.23;;;5.07;;
10050;SDS011;5065;46.942;7.432;2023-01-19T02:32:40;10.30;;;5.10;;
10050;SDS011;5065;46.942;7.432;2023-01-19T02:35:08;7.60;;;5.00;;
10050;SDS011;5065;46.942;7.432;2023-01-19T02:37:36;6.03;;;4.90;;
10050;SDS011;5065;46.942;7.432;2023-01-19T02:40:06;9.93;;;5.37;;
10050;SDS011;5065;46.942;7.432;2023-01-19T02:42:38;7.47;;;5.10;;
10050;SDS011;5065;46.942;7.432;2023-01-19T02:45:09;5.87;;;4.33;;
10050;SDS011;5065;46.942;7.432;2023-01-19T02:47:38;5.63;;;4.57;;
10050;SDS011;5065;46.942;7.432;2023-01-19T02:53:03;7.63;;;5.33;;
10050;SDS011;5065;46.942;7.432;2023-01-19T02:55:51;6.03;;;4.33;;
10050;SDS011;5065;46.942;7.432;2023-01-19T02:58:28;6.53;;;4.60;;
10050;SDS011;5065;46.942;7.432;2023-01-19T03:01:03;7.53;;;5.00;;
10050;SDS011;5065;46.942;7.432;2023-01-19T03:03:41;12.90;;;5.93;;
10050;SDS011;5065;46.942;7.432;2023-01-19T03:06:22;6.80;;;4.73;;
10050;SDS011;5065;46.942;7.432;2023-01-19T03:08:59;5.80;;;4.47;;
10050;SDS011;5065;46.942;7.432;2023-01-19T03:11:35;8.97;;;5.53;;
10050;SDS011;5065;46.942;7.432;2023-01-19T03:14:08;7.03;;;4.73;;
10050;SDS011;5065;46.942;7.432;2023-01-19T03:16:38;6.63;;;5.17;;
10050;SDS011;5065;46.942;7.432;2023-01-19T03:19:09;7.70;;;5.50;;
10050;SDS011;5065;46.942;7.432;2023-01-19T03:21:41;8.10;;;5.53;;
10050;SDS011;5065;46.942;7.432;2023-01-19T03:24:12;8.10;;;5.10;;
10050;SDS011;5065;46.942;7.432;2023-01-19T03:26:43;6.03;;;4.80;;
10050;SDS011;5065;46.942;7.432;2023-01-19T03:29:16;6.63;;;4.97;;
10050;SDS011;5065;46.942;7.432;2023-01-19T03:31:46;7.47;;;5.50;;
10050;SDS011;5065;46.942;7.432;2023-01-19T03:34:15;11.10;;;7.20;;
10050;SDS011;5065;46.942;7.432;2023-01-19T03:36:48;7.90;;;5.03;;
10050;SDS011;5065;46.942;7.432;2023-01-19T03:39:20;6.43;;;5.13;;
10050;SDS011;5065;46.942;7.432;2023-01-19T03:41:49;8.57;;;5.63;;
10050;SDS011;5065;46.942;7.432;2023-01-19T03:44:21;8.20;;;5.90;;
10050;SDS011;5065;46.942;7.432;2023-01-19T03:46:49;8.87;;;5.80;;
10050;SDS011;5065;46.942;7.432;2023-01-19T03:49:17;10.03;;;5.63;;
10050;SDS011;5065;46.942;7.432;2023-01-19T03:51:44;8.87;;;6.33;;
10050;SDS011;5065;46.942;7.432;2023-01-19T03:54:12;8.70;;;5.80;;
10050;SDS011;5065;46.942;7.432;2023-01-19T03:56:39;8.37;;;5.53;;
10050;SDS011;5065;46.942;7.432;2023-01-19T03:59:07;8.30;;;5.83;;
10050;SDS011;5065;46.942;7.432;2023-01-19T04:01:36;8.77;;;5.43;;
10050;SDS011;5065;46.942;7.432;2023-01-19T04:04:03;9.07;;;6.40;;
10050;SDS011;5065;46.942;7.432;2023-01-19T04:06:30;7.80;;;5.80;;
10050;SDS011;5065;46.942;7.432;2023-01-19T04:08:57;6.67;;;4.90;;
10050;SDS011;5065;46.942;7.432;2023-01-19T04:11:24;8.00;;;5.83;;
10050;SDS011;5065;46.942;7.432;2023-01-19T04:13:51;8.20;;;6.07;;
10050;SDS011;5065;46.942;7.432;2023-01-19T04:16:19;6.97;;;5.37;;
10050;SDS011;5065;46.942;7.432;2023-01-19T04:18:47;6.40;;;5.13;;
10050;SDS011;5065;46.942;7.432;2023-01-19T04:21:16;7.23;;;5.53;;
10050;SDS011;5065;46.942;7.432;2023-01-19T04:23:45;7.73;;;5.60;;
10050;SDS011;5065;46.942;7.432;2023-01-19T04:26:14;7.83;;;5.33;;
10050;SDS011;5065;46.942;7.432;2023-01-19T04:28:41;10.27;;;5.93;;
10050;SDS011;5065;46.942;7.432;2023-01-19T04:31:08;9.13;;;5.83;;
10050;SDS011;5065;46.942;7.432;2023-01-19T04:33:35;8.20;;;5.83;;
10050;SDS011;5065;46.942;7.432;2023-01-19T04:36:04;10.83;;;5.80;;
10050;SDS011;5065;46.942;7.432;2023-01-19T04:38:32;8.43;;;5.57;;
10050;SDS011;5065;46.942;7.432;2023-01-19T04:41:00;7.80;;;5.40;;
10050;SDS011;5065;46.942;7.432;2023-01-19T04:43:27;7.23;;;5.03;;
10050;SDS011;5065;46.942;7.432;2023-01-19T04:45:54;10.27;;;5.10;;
10050;SDS011;5065;46.942;7.432;2023-01-19T04:48:21;9.43;;;4.87;;
10050;SDS011;5065;46.942;7.432;2023-01-19T04:50:49;7.63;;;5.40;;
10050;SDS011;5065;46.942;7.432;2023-01-19T04:53:18;6.93;;;4.63;;
10050;SDS011;5065;46.942;7.432;2023-01-19T04:55:45;4.83;;;4.37;;
10050;SDS011;5065;46.942;7.432;2023-01-19T04:58:12;7.30;;;4.93;;
10050;SDS011;5065;46.942;7.432;2023-01-19T05:00:39;9.93;;;5.17;;
10050;SDS011;5065;46.942;7.432;2023-01-19T05:03:07;5.20;;;4.70;;
10050;SDS011;5065;46.942;7.432;2023-01-19T05:05:34;7.83;;;5.33;;
10050;SDS011;5065;46.942;7.432;2023-01-19T05:08:01;6.23;;;4.90;;
10050;SDS011;5065;46.942;7.432;2023-01-19T05:10:30;6.37;;;4.93;;
10050;SDS011;5065;46.942;7.432;2023-01-19T05:12:57;7.97;;;5.83;;
10050;SDS011;5065;46.942;7.432;2023-01-19T05:15:24;8.97;;;5.63;;
10050;SDS011;5065;46.942;7.432;2023-01-19T05:17:51;6.80;;;4.67;;
10050;SDS011;5065;46.942;7.432;2023-01-19T05:20:18;6.80;;;5.33;;
10050;SDS011;5065;46.942;7.432;2023-01-19T05:22:47;8.47;;;5.53;;
10050;SDS011;5065;46.942;7.432;2023-01-19T05:25:15;6.47;;;5.03;;
10050;SDS011;5065;46.942;7.432;2023-01-19T05:27:44;8.53;;;5.23;;
10050;SDS011;5065;46.942;7.432;2023-01-19T05:30:11;7.87;;;5.30;;
10050;SDS011;5065;46.942;7.432;2023-01-19T05:32:39;7.77;;;5.90;;
10050;SDS011;5065;46.942;7.432;2023-01-19T05:35:07;10.00;;;5.73;;
10050;SDS011;5065;46.942;7.432;2023-01-19T05:37:34;7.30;;;5.73;;
10050;SDS011;5065;46.942;7.432;2023-01-19T05:40:02;8.90;;;6.43;;
10050;SDS011;5065;46.942;7.432;2023-01-19T05:42:29;8.13;;;5.70;;
10050;SDS011;5065;46.942;7.432;2023-01-19T05:44:58;6.83;;;5.80;;
10050;SDS011;5065;46.942;7.432;2023-01-19T05:47:25;9.17;;;5.87;;
10050;SDS011;5065;46.942;7.432;2023-01-19T05:49:54;10.87;;;5.43;;
10050;SDS011;5065;46.942;7.432;2023-01-19T05:52:21;10.53;;;5.93;;
10050;SDS011;5065;46.942;7.432;2023-01-19T05:54:49;7.63;;;4.90;;
10050;SDS011;5065;46.942;7.432;2023-01-19T05:57:16;8.13;;;6.40;;
10050;SDS011;5065;46.942;7.432;2023-01-19T05:59:43;7.43;;;5.90;;
10050;SDS011;5065;46.942;7.432;2023-01-19T06:02:12;7.87;;;5.53;;
10050;SDS011;5065;46.942;7.432;2023-01-19T06:04:39;6.00;;;5.13;;
10050;SDS011;5065;46.942;7.432;2023-01-19T06:07:06;7.97;;;5.57;;
10050;SDS011;5065;46.942;7.432;2023-01-19T06:09:33;9.57;;;5.90;;
10050;SDS011;5065;46.942;7.432;2023-01-19T06:12:00;7.93;;;5.37;;
10050;SDS011;5065;46.942;7.432;2023-01-19T06:14:28;8.53;;;5.60;;
10050;SDS011;5065;46.942;7.432;2023-01-19T06:16:56;7.27;;;5.17;;
10050;SDS011;5065;46.942;7.432;2023-01-19T06:19:25;6.10;;;4.87;;
10050;SDS011;5065;46.942;7.432;2023-01-19T06:21:52;7.60;;;4.73;;
10050;SDS011;5065;46.942;7.432;2023-01-19T06:24:20;7.13;;;4.90;;
10050;SDS011;5065;46.942;7.432;2023-01-19T06:26:53;8.50;;;4.93;;
10050;SDS011;5065;46.942;7.432;2023-01-19T06:29:20;8.67;;;5.33;;
10050;SDS011;5065;46.942;7.432;2023-01-19T06:31:47;5.63;;;4.37;;
10050;SDS011;5065;46.942;7.432;2023-01-19T06:34:14;6.67;;;4.33;;
10050;SDS011;5065;46.942;7.432;2023-01-19T06:36:44;5.87;;;4.70;;
10050;SDS011;5065;46.942;7.432;2023-01-19T06:39:12;7.60;;;5.63;;
10050;SDS011;5065;46.942;7.432;2023-01-19T06:41:39;10.17;;;5.77;;
10050;SDS011;5065;46.942;7.432;2023-01-19T06:44:06;9.40;;;4.73;;
10050;SDS011;5065;46.942;7.432;2023-01-19T06:46:33;6.87;;;5.53;;
10050;SDS011;5065;46.942;7.432;2023-01-19T06:49:01;6.97;;;5.70;;
10050;SDS011;5065;46.942;7.432;2023-01-19T06:51:28;6.33;;;4.47;;
10050;SDS011;5065;46.942;7.432;2023-01-19T06:53:56;8.73;;;5.30;;
10050;SDS011;5065;46.942;7.432;2023-01-19T06:56:23;7.27;;;5.50;;
10050;SDS011;5065;46.942;7.432;2023-01-19T06:58:51;8.83;;;5.30;;
10050;SDS011;5065;46.942;7.432;2023-01-19T07:01:19;8.33;;;4.90;;
10050;SDS011;5065;46.942;7.432;2023-01-19T07:03:46;7.47;;;5.33;;
10050;SDS011;5065;46.942;7.432;2023-01-19T07:06:13;10.67;;;5.50;;
10050;SDS011;5065;46.942;7.432;2023-01-19T07:08:40;7.10;;;4.93;;
10050;SDS011;5065;46.942;7.432;2023-01-19T07:11:09;9.17;;;5.60;;
10050;SDS011;5065;46.942;7.432;2023-01-19T07:13:38;8.80;;;5.20;;
10050;SDS011;5065;46.942;7.432;2023-01-19T07:16:07;7.80;;;5.57;;
10050;SDS011;5065;46.942;7.432;2023-01-19T07:18:37;7.97;;;5.70;;
10050;SDS011;5065;46.942;7.432;2023-01-19T07:21:05;8.80;;;5.67;;
10050;SDS011;5065;46.942;7.432;2023-01-19T07:23:33;6.93;;;5.57;;
10050;SDS011;5065;46.942;7.432;2023-01-19T07:26:02;7.27;;;4.77;;
10050;SDS011;5065;46.942;7.432;2023-01-19T07:28:30;6.70;;;6.10;;
10050;SDS011;5065;46.942;7.432;2023-01-19T07:30:57;9.27;;;6.23;;
10050;SDS011;5065;46.942;7.432;2023-01-19T07:33:25;6.03;;;4.60;;
10050;SDS011;5065;46.942;7.432;2023-01-19T07:35:52;10.40;;;6.27;;
10050;SDS011;5065;46.942;7.432;2023-01-19T07:38:20;7.00;;;5.13;;
10050;SDS011;5065;46.942;7.432;2023-01-19T07:40:47;8.37;;;6.10;;
10050;SDS011;5065;46.942;7.432;2023-01-19T07:43:14;5.17;;;4.47;;
10050;SDS011;5065;46.942;7.432;2023-01-19T07:45:43;6.73;;;5.13;;
10050;SDS011;5065;46.942;7.432;2023-01-19T07:48:10;6.67;;;4.90;;
10050;SDS011;5065;46.942;7.432;2023-01-19T07:50:37;8.40;;;5.23;;
10050;SDS011;5065;46.942;7.432;2023-01-19T07:53:04;6.73;;;4.50;;
10050;SDS011;5065;46.942;7.432;2023-01-19T07:55:32;7.43;;;5.67;;
10050;SDS011;5065;46.942;7.432;2023-01-19T07:58:00;9.73;;;5.63;;
10050;SDS011;5065;46.942;7.432;2023-01-19T08:00:30;8.93;;;5.70;;
10050;SDS011;5065;46.942;7.432;2023-01-19T08:02:59;9.37;;;5.23;;
10050;SDS011;5065;46.942;7.432;2023-01-19T08:05:27;6.77;;;5.17;;
10050;SDS011;5065;46.942;7.432;2023-01-19T08:07:54;12.40;;;5.37;;
10050;SDS011;5065;46.942;7.432;2023-01-19T08:10:22;8.20;;;4.80;;
10050;SDS011;5065;46.942;7.432;2023-01-19T08:12:51;9.13;;;5.03;;
10050;SDS011;5065;46.942;7.432;2023-01-19T08:15:18;10.60;;;6.40;;
10050;SDS011;5065;46.942;7.432;2023-01-19T08:17:53;7.23;;;5.47;;
10050;SDS011;5065;46.942;7.432;2023-01-19T08:20:23;10.40;;;7.43;;
10050;SDS011;5065;46.942;7.432;2023-01-19T08:22:51;9.53;;;5.97;;
10050;SDS011;5065;46.942;7.432;2023-01-19T08:25:24;8.07;;;5.50;;
10050;SDS011;5065;46.942;7.432;2023-01-19T08:27:53;8.83;;;6.23;;
10050;SDS011;5065;46.942;7.432;2023-01-19T08:30:20;8.40;;;5.70;;
10050;SDS011;5065;46.942;7.432;2023-01-19T08:32:50;9.40;;;6.30;;
10050;SDS011;5065;46.942;7.432;2023-01-19T08:35:18;9.13;;;6.47;;
10050;SDS011;5065;46.942;7.432;2023-01-19T08:37:48;8.00;;;6.67;;
10050;SDS011;5065;46.942;7.432;2023-01-19T08:40:15;7.57;;;5.87;;
10050;SDS011;5065;46.942;7.432;2023-01-19T08:42:43;9.70;;;6.93;;
10050;SDS011;5065;46.942;7.432;2023-01-19T08:45:11;9.20;;;5.97;;
10050;SDS011;5065;46.942;7.432;2023-01-19T08:47:38;9.03;;;6.43;;
10050;SDS011;5065;46.942;7.432;2023-01-19T08:50:05;9.10;;;6.30;;
10050;SDS011;5065;46.942;7.432;2023-01-19T08:52:34;10.33;;;6.20;;
10050;SDS011;5065;46.942;7.432;2023-01-19T08:55:03;7.97;;;6.03;;
10050;SDS011;5065;46.942;7.432;2023-01-19T08:57:32;9.90;;;6.83;;
10050;SDS011;5065;46.942;7.432;2023-01-19T08:59:59;8.93;;;6.07;;
10050;SDS011;5065;46.942;7.432;2023-01-19T09:02:26;8.40;;;6.03;;
10050;SDS011;5065;46.942;7.432;2023-01-19T09:04:53;9.50;;;6.37;;
10050;SDS011;5065;46.942;7.432;2023-01-19T09:07:20;7.67;;;6.17;;
10050;SDS011;5065;46.942;7.432;2023-01-19T09:09:48;7.17;;;5.63;;
10050;SDS011;5065;46.942;7.432;2023-01-19T09:12:16;8.97;;;6.30;;
10050;SDS011;5065;46.942;7.432;2023-01-19T09:14:44;10.10;;;5.73;;
10050;SDS011;5065;46.942;7.432;2023-01-19T09:17:11;7.20;;;5.77;;
10050;SDS011;5065;46.942;7.432;2023-01-19T09:19:39;8.17;;;5.23;;
10050;SDS011;5065;46.942;7.432;2023-01-19T09:22:06;12.30;;;7.17;;
10050;SDS011;5065;46.942;7.432;2023-01-19T09:24:33;12.37;;;7.60;;
10050;SDS011;5065;46.942;7.432;2023-01-19T09:27:00;17.47;;;8.83;;
10050;SDS011;5065;46.942;7.432;2023-01-19T09:29:29;9.10;;;6.93;;
10050;SDS011;5065;46.942;7.432;2023-01-19T09:31:56;14.27;;;6.00;;
10050;SDS011;5065;46.942;7.432;2023-01-19T09:34:24;8.37;;;5.97;;
10050;SDS011;5065;46.942;7.432;2023-01-19T09:36:51;10.97;;;6.47;;
10050;SDS011;5065;46.942;7.432;2023-01-19T09:39:18;7.67;;;5.90;;
10050;SDS011;5065;46.942;7.432;2023-01-19T09:41:47;9.47;;;6.30;;
10050;SDS011;5065;46.942;7.432;2023-01-19T09:44:23;6.83;;;5.70;;
10050;SDS011;5065;46.942;7.432;2023-01-19T09:46:56;7.03;;;5.57;;
10050;SDS011;5065;46.942;7.432;2023-01-19T09:49:25;8.93;;;6.83;;
10050;SDS011;5065;46.942;7.432;2023-01-19T09:51:56;9.40;;;6.33;;
10050;SDS011;5065;46.942;7.432;2023-01-19T09:54:27;10.03;;;7.07;;
10050;SDS011;5065;46.942;7.432;2023-01-19T09:57:01;7.73;;;5.57;;
10050;SDS011;5065;46.942;7.432;2023-01-19T09:59:31;6.27;;;5.07;;
10050;SDS011;5065;46.942;7.432;2023-01-19T10:02:05;10.30;;;5.63;;
10050;SDS011;5065;46.942;7.432;2023-01-19T10:04:40;8.33;;;5.27;;
10050;SDS011;5065;46.942;7.432;2023-01-19T10:07:11;7.57;;;5.60;;
10050;SDS011;5065;46.942;7.432;2023-01-19T10:10:01;7.87;;;5.17;;
10050;SDS011;5065;46.942;7.432;2023-01-19T10:12:46;6.60;;;5.37;;
10050;SDS011;5065;46.942;7.432;2023-01-19T10:15:35;8.20;;;6.13;;
10050;SDS011;5065;46.942;7.432;2023-01-19T10:18:16;6.97;;;5.60;;
10050;SDS011;5065;46.942;7.432;2023-01-19T10:20:47;9.20;;;5.00;;
10050;SDS011;5065;46.942;7.432;2023-01-19T10:23:22;7.73;;;5.60;;
10050;SDS011;5065;46.942;7.432;2023-01-19T10:25:58;8.20;;;5.33;;
10050;SDS011;5065;46.942;7.432;2023-01-19T10:28:28;8.17;;;5.27;;
10050;SDS011;5065;46.942;7.432;2023-01-19T10:30:56;7.83;;;6.03;;
10050;SDS011;5065;46.942;7.432;2023-01-19T10:33:24;6.27;;;4.73;;
10050;SDS011;5065;46.942;7.432;2023-01-19T10:35:51;7.03;;;4.47;;
10050;SDS011;5065;46.942;7.432;2023-01-19T10:38:19;13.30;;;5.80;;
10050;SDS011;5065;46.942;7.432;2023-01-19T10:40:48;6.97;;;5.43;;
10050;SDS011;5065;46.942;7.432;2023-01-19T10:49:04;5.63;;;4.40;;
10050;SDS011;5065;46.942;7.432;2023-01-19T10:51:32;6.63;;;5.00;;
10050;SDS011;5065;46.942;7.432;2023-01-19T10:54:10;10.27;;;5.97;;
10050;SDS011;5065;46.942;7.432;2023-01-19T10:56:38;7.87;;;4.73;;
10050;SDS011;5065;46.942;7.432;2023-01-19T10:59:26;10.93;;;6.13;;
10050;SDS011;5065;46.942;7.432;2023-01-19T11:02:01;8.80;;;5.07;;
10050;SDS011;5065;46.942;7.432;2023-01-19T11:04:38;6.87;;;4.87;;
10050;SDS011;5065;46.942;7.432;2023-01-19T11:07:13;10.57;;;5.63;;
10050;SDS011;5065;46.942;7.432;2023-01-19T11:09:41;7.77;;;4.87;;
10050;SDS011;5065;46.942;7.432;2023-01-19T11:12:18;8.03;;;4.70;;
10050;SDS011;5065;46.942;7.432;2023-01-19T11:14:47;6.13;;;4.37;;
10050;SDS011;5065;46.942;7.432;2023-01-19T11:17:17;4.17;;;3.57;;
10050;SDS011;5065;46.942;7.432;2023-01-19T11:19:57;6.67;;;4.33;;
10050;SDS011;5065;46.942;7.432;2023-01-19T11:22:27;5.63;;;4.17;;
10050;SDS011;5065;46.942;7.432;2023-01-19T11:25:00;6.93;;;4.00;;
10050;SDS011;5065;46.942;7.432;2023-01-19T11:27:30;5.00;;;4.20;;
10050;SDS011;5065;46.942;7.432;2023-01-19T11:30:00;5.30;;;4.47;;
10050;SDS011;5065;46.942;7.432;2023-01-19T11:32:34;9.37;;;4.87;;
10050;SDS011;5065;46.942;7.432;2023-01-19T11:35:11;5.13;;;3.70;;
10050;SDS011;5065;46.942;7.432;2023-01-19T11:38:15;4.90;;;3.60;;
10050;SDS011;5065;46.942;7.432;2023-01-19T11:40:49;3.70;;;3.37;;
10050;SDS011;5065;46.942;7.432;2023-01-19T11:43:18;7.87;;;4.03;;
10050;SDS011;5065;46.942;7.432;2023-01-19T11:45:47;5.57;;;4.33;;
10050;SDS011;5065;46.942;7.432;2023-01-19T11:48:16;4.87;;;4.23;;
10050;SDS011;5065;46.942;7.432;2023-01-19T11:50:51;5.87;;;4.40;;
10050;SDS011;5065;46.942;7.432;2023-01-19T11:53:21;6.10;;;4.30;;
10050;SDS011;5065;46.942;7.432;2023-01-19T11:55:51;6.80;;;4.83;;
10050;SDS011;5065;46.942;7.432;2023-01-19T11:58:21;7.07;;;5.00;;
10050;SDS011;5065;46.942;7.432;2023-01-19T12:00:51;8.10;;;4.40;;
10050;SDS011;5065;46.942;7.432;2023-01-19T12:03:23;5.30;;;4.30;;
10050;SDS011;5065;46.942;7.432;2023-01-19T12:05:57;7.10;;;4.50;;
10050;SDS011;5065;46.942;7.432;2023-01-19T12:08:29;6.83;;;4.87;;
10050;SDS011;5065;46.942;7.432;2023-01-19T12:11:00;5.70;;;4.37;;
10050;SDS011;5065;46.942;7.432;2023-01-19T12:13:29;7.27;;;4.50;;
10050;SDS011;5065;46.942;7.432;2023-01-19T12:15:59;6.00;;;4.67;;
10050;SDS011;5065;46.942;7.432;2023-01-19T12:18:32;7.87;;;4.70;;
10050;SDS011;5065;46.942;7.432;2023-01-19T12:21:03;6.07;;;4.60;;
10050;SDS011;5065;46.942;7.432;2023-01-19T12:23:36;6.33;;;4.73;;
10050;SDS011;5065;46.942;7.432;2023-01-19T12:26:19;7.40;;;4.77;;
10050;SDS011;5065;46.942;7.432;2023-01-19T12:28:53;6.13;;;4.27;;
10050;SDS011;5065;46.942;7.432;2023-01-19T12:31:22;7.07;;;4.53;;
10050;SDS011;5065;46.942;7.432;2023-01-19T12:33:50;9.07;;;4.97;;
10050;SDS011;5065;46.942;7.432;2023-01-19T12:39:15;7.10;;;4.33;;
10050;SDS011;5065;46.942;7.432;2023-01-19T12:41:44;9.73;;;5.23;;
10050;SDS011;5065;46.942;7.432;2023-01-19T12:44:18;7.97;;;5.20;;
10050;SDS011;5065;46.942;7.432;2023-01-19T12:46:48;8.00;;;4.90;;
10050;SDS011;5065;46.942;7.432;2023-01-19T12:49:23;8.47;;;4.13;;
10050;SDS011;5065;46.942;7.432;2023-01-19T12:54:40;8.83;;;4.53;;
10050;SDS011;5065;46.942;7.432;2023-01-19T12:57:16;6.47;;;4.50;;
10050;SDS011;5065;46.942;7.432;2023-01-19T12:59:47;6.83;;;4.40;;
10050;SDS011;5065;46.942;7.432;2023-01-19T13:05:12;5.90;;;4.47;;
10050;SDS011;5065;46.942;7.432;2023-01-19T13:22:49;6.07;;;4.10;;
10050;SDS011;5065;46.942;7.432;2023-01-19T13:25:41;5.40;;;4.53;;
10050;SDS011;5065;46.942;7.432;2023-01-19T13:28:27;8.87;;;4.70;;
10050;SDS011;5065;46.942;7.432;2023-01-19T13:31:01;5.50;;;4.17;;
10050;SDS011;5065;46.942;7.432;2023-01-19T13:33:32;7.10;;;4.10;;
10050;SDS011;5065;46.942;7.432;2023-01-19T13:36:04;6.13;;;4.60;;
10050;SDS011;5065;46.942;7.432;2023-01-19T13:38:50;4.37;;;3.47;;
10050;SDS011;5065;46.942;7.432;2023-01-19T13:41:19;7.13;;;4.00;;
10050;SDS011;5065;46.942;7.432;2023-01-19T13:43:50;6.97;;;5.10;;
10050;SDS011;5065;46.942;7.432;2023-01-19T13:46:23;6.23;;;3.93;;
10050;SDS011;5065;46.942;7.432;2023-01-19T13:48:55;5.47;;;4.17;;
10050;SDS011;5065;46.942;7.432;2023-01-19T13:51:24;7.77;;;4.30;;
10050;SDS011;5065;46.942;7.432;2023-01-19T13:53:52;10.13;;;4.87;;
10050;SDS011;5065;46.942;7.432;2023-01-19T13:56:20;7.03;;;4.47;;
10050;SDS011;5065;46.942;7.432;2023-01-19T13:59:05;5.87;;;4.43;;
10050;SDS011;5065;46.942;7.432;2023-01-19T14:01:37;6.27;;;4.93;;
10050;SDS011;5065;46.942;7.432;2023-01-19T14:04:14;7.37;;;4.30;;
10050;SDS011;5065;46.942;7.432;2023-01-19T14:06:53;6.90;;;4.47;;
10050;SDS011;5065;46.942;7.432;2023-01-19T14:09:24;5.87;;;4.40;;
10050;SDS011;5065;46.942;7.432;2023-01-19T14:12:04;5.27;;;4.07;;
10050;SDS011;5065;46.942;7.432;2023-01-19T14:14:36;6.70;;;3.83;;
10050;SDS011;5065;46.942;7.432;2023-01-19T14:17:03;6.67;;;3.63;;
10050;SDS011;5065;46.942;7.432;2023-01-19T14:19:48;10.03;;;4.50;;
10050;SDS011;5065;46.942;7.432;2023-01-19T14:22:16;6.77;;;4.47;;
10050;SDS011;5065;46.942;7.432;2023-01-19T14:24:43;5.83;;;4.47;;
10050;SDS011;5065;46.942;7.432;2023-01-19T14:27:17;5.80;;;4.37;;
10050;SDS011;5065;46.942;7.432;2023-01-19T14:29:47;7.07;;;4.23;;
10050;SDS011;5065;46.942;7.432;2023-01-19T14:32:18;5.20;;;4.03;;
10050;SDS011;5065;46.942;7.432;2023-01-19T14:34:48;5.47;;;4.63;;
10050;SDS011;5065;46.942;7.432;2023-01-19T14:37:18;5.17;;;4.03;;
10050;SDS011;5065;46.942;7.432;2023-01-19T14:39:47;13.27;;;5.17;;
10050;SDS011;5065;46.942;7.432;2023-01-19T14:42:17;6.53;;;4.07;;
10050;SDS011;5065;46.942;7.432;2023-01-19T14:44:49;6.53;;;4.10;;
10050;SDS011;5065;46.942;7.432;2023-01-19T14:47:25;5.90;;;3.90;;
10050;SDS011;5065;46.942;7.432;2023-01-19T14:49:56;7.23;;;4.60;;
10050;SDS011;5065;46.942;7.432;2023-01-19T14:52:27;6.50;;;4.37;;
10050;SDS011;5065;46.942;7.432;2023-01-19T14:54:56;11.17;;;4.30;;
10050;SDS011;5065;46.942;7.432;2023-01-19T14:57:25;7.17;;;4.13;;
10050;SDS011;5065;46.942;7.432;2023-01-19T14:59:52;5.57;;;4.60;;
10050;SDS011;5065;46.942;7.432;2023-01-19T15:02:20;6.37;;;4.67;;
10050;SDS011;5065;46.942;7.432;2023-01-19T15:04:47;5.83;;;4.67;;
10050;SDS011;5065;46.942;7.432;2023-01-19T15:07:19;6.47;;;4.97;;
10050;SDS011;5065;46.942;7.432;2023-01-19T15:09:49;5.90;;;4.57;;
10050;SDS011;5065;46.942;7.432;2023-01-19T15:12:16;8.57;;;5.30;;
10050;SDS011;5065;46.942;7.432;2023-01-19T15:14:44;8.70;;;4.17;;
10050;SDS011;5065;46.942;7.432;2023-01-19T15:17:15;4.87;;;4.23;;
10050;SDS011;5065;46.942;7.432;2023-01-19T15:19:49;6.43;;;4.97;;
10050;SDS011;5065;46.942;7.432;2023-01-19T15:22:23;8.63;;;4.83;;
10050;SDS011;5065;46.942;7.432;2023-01-19T15:24:52;7.53;;;4.30;;
10050;SDS011;5065;46.942;7.432;2023-01-19T15:27:21;7.43;;;4.57;;
10050;SDS011;5065;46.942;7.432;2023-01-19T15:29:48;7.13;;;5.33;;
10050;SDS011;5065;46.942;7.432;2023-01-19T15:32:16;7.33;;;5.07;;
10050;SDS011;5065;46.942;7.432;2023-01-19T15:34:43;8.00;;;4.90;;
10050;SDS011;5065;46.942;7.432;2023-01-19T15:37:10;6.17;;;4.73;;
10050;SDS011;5065;46.942;7.432;2023-01-19T15:39:38;6.43;;;4.77;;
10050;SDS011;5065;46.942;7.432;2023-01-19T15:42:08;7.40;;;4.83;;
10050;SDS011;5065;46.942;7.432;2023-01-19T15:44:41;7.03;;;4.70;;
10050;SDS011;5065;46.942;7.432;2023-01-19T15:47:09;7.73;;;4.53;;
10050;SDS011;5065;46.942;7.432;2023-01-19T15:49:36;9.27;;;4.60;;